createdAt,value
2018-08-23T00:02:25.920Z,19.40
2018-08-23T00:04:57.959Z,19.27
2018-08-23T00:07:29.911Z,19.21
2018-08-23T00:10:04.405Z,19.14
2018-08-23T00:12:43.955Z,19.10
2018-08-23T00:15:18.948Z,19.09
2018-08-23T00:17:50.942Z,19.39
2018-08-23T00:20:24.091Z,19.51
2018-08-23T00:22:56.077Z,19.45
2018-08-23T00:25:28.081Z,19.48
2018-08-23T00:28:00.127Z,19.38
2018-08-23T00:30:32.951Z,19.26
2018-08-23T00:33:06.311Z,19.17
2018-08-23T00:35:38.605Z,19.13
2018-08-23T00:38:10.599Z,19.15
2018-08-23T00:40:43.855Z,19.19
2018-08-23T00:43:15.811Z,19.09
2018-08-23T00:45:47.791Z,19.03
2018-08-23T00:48:19.791Z,19.06
2018-08-23T00:50:54.584Z,18.98
2018-08-23T00:53:27.571Z,18.95
2018-08-23T00:56:14.268Z,19.09
2018-08-23T00:58:51.040Z,19.09
2018-08-23T01:01:23.037Z,18.98
2018-08-23T01:03:55.006Z,18.92
2018-08-23T01:06:39.267Z,18.84
2018-08-23T01:09:12.183Z,18.79
2018-08-23T01:11:45.194Z,18.75
2018-08-23T01:14:17.198Z,18.63
2018-08-23T01:17:03.387Z,18.67
2018-08-23T01:19:41.097Z,18.60
2018-08-23T01:22:13.159Z,18.63
2018-08-23T01:24:47.306Z,18.55
2018-08-23T01:27:51.338Z,18.50
2018-08-23T01:30:23.794Z,18.42
2018-08-23T01:32:55.801Z,18.40
2018-08-23T01:35:28.275Z,18.38
2018-08-23T01:38:00.285Z,18.50
2018-08-23T01:40:32.323Z,18.58
2018-08-23T01:43:04.367Z,18.56
2018-08-23T01:45:36.399Z,18.55
2018-08-23T01:48:09.195Z,18.48
2018-08-23T01:50:41.166Z,18.46
2018-08-23T01:53:13.169Z,18.45
2018-08-23T01:55:45.164Z,18.46
2018-08-23T01:58:17.182Z,18.37
2018-08-23T02:01:03.914Z,18.25
2018-08-23T02:03:35.918Z,18.21
2018-08-23T02:06:07.909Z,18.16
2018-08-23T02:08:41.633Z,18.11
2018-08-23T02:11:13.942Z,18.03
2018-08-23T02:13:47.937Z,18.00
2018-08-23T02:16:19.906Z,17.97
2018-08-23T02:18:52.282Z,17.93
2018-08-23T02:21:24.315Z,17.90
2018-08-23T02:23:56.322Z,17.95
2018-08-23T02:26:28.363Z,18.08
2018-08-23T02:29:00.365Z,18.14
2018-08-23T02:31:32.357Z,18.10
2018-08-23T02:34:04.482Z,18.14
2018-08-23T02:36:36.511Z,18.17
2018-08-23T02:39:08.876Z,18.05
2018-08-23T02:41:40.890Z,18.04
2018-08-23T02:44:12.863Z,18.14
2018-08-23T02:46:44.848Z,18.23
2018-08-23T02:49:16.888Z,18.29
2018-08-23T02:51:49.810Z,18.42
2018-08-23T02:54:22.606Z,18.53
2018-08-23T02:56:56.778Z,18.56
2018-08-23T02:59:29.653Z,18.61
2018-08-23T03:02:01.644Z,18.69
2018-08-23T03:04:33.638Z,18.71
2018-08-23T03:07:05.664Z,18.78
2018-08-23T03:09:38.744Z,18.83
2018-08-23T03:12:16.549Z,18.91
2018-08-23T03:14:48.535Z,18.89
2018-08-23T03:17:22.455Z,18.87
2018-08-23T03:20:17.864Z,18.86
2018-08-23T03:22:51.163Z,19.01
2018-08-23T03:25:24.291Z,18.92
2018-08-23T03:27:56.291Z,18.91
2018-08-23T03:30:28.400Z,18.89
2018-08-23T03:33:00.400Z,18.89
2018-08-23T03:35:32.438Z,18.90
2018-08-23T03:38:04.462Z,18.95
2018-08-23T03:40:36.485Z,19.01
2018-08-23T03:43:08.539Z,19.01
2018-08-23T03:45:40.519Z,19.04
2018-08-23T03:48:12.527Z,19.08
2018-08-23T03:50:50.241Z,19.07
2018-08-23T03:53:24.311Z,19.02
2018-08-23T03:56:07.316Z,19.05
2018-08-23T03:58:39.300Z,19.12
2018-08-23T04:01:12.659Z,18.98
2018-08-23T04:03:44.687Z,18.78
2018-08-23T04:06:36.336Z,18.77
2018-08-23T04:09:08.607Z,18.66
2018-08-23T04:11:40.628Z,18.57
2018-08-23T04:14:12.613Z,18.54
2018-08-23T04:16:44.608Z,18.60
2018-08-23T04:19:16.632Z,18.66
2018-08-23T04:21:48.659Z,18.78
2018-08-23T04:24:20.678Z,18.95
2018-08-23T04:26:52.699Z,19.07
2018-08-23T04:29:32.240Z,19.28
2018-08-23T04:32:04.210Z,19.40
2018-08-23T04:34:36.661Z,19.53
2018-08-23T04:37:08.668Z,19.85
2018-08-23T04:39:45.613Z,19.99
2018-08-23T04:42:17.588Z,20.13
2018-08-23T04:44:50.595Z,20.23
2018-08-23T04:47:23.627Z,20.29
2018-08-23T04:49:55.578Z,20.29
2018-08-23T04:52:27.591Z,20.35
2018-08-23T04:54:59.564Z,20.41
2018-08-23T04:57:31.538Z,20.61
2018-08-23T05:00:03.611Z,20.79
2018-08-23T05:02:35.611Z,20.82
2018-08-23T05:05:07.627Z,20.98
2018-08-23T05:07:39.618Z,21.10
2018-08-23T05:10:11.794Z,21.28
2018-08-23T05:12:43.777Z,21.52
2018-08-23T05:15:15.920Z,21.73
2018-08-23T05:17:47.919Z,21.62
2018-08-23T05:20:19.908Z,21.57
2018-08-23T05:23:00.354Z,21.59
2018-08-23T05:25:32.327Z,21.66
2018-08-23T05:28:13.138Z,21.59
2018-08-23T05:30:45.871Z,21.94
2018-08-23T05:33:20.762Z,22.43
2018-08-23T05:35:52.755Z,23.17
2018-08-23T05:38:24.751Z,23.85
2018-08-23T05:41:02.491Z,24.33
2018-08-23T05:43:34.498Z,23.85
2018-08-23T05:46:06.906Z,24.66
2018-08-23T05:48:38.956Z,26.00
2018-08-23T05:51:13.091Z,26.92
2018-08-23T05:53:46.826Z,27.98
2018-08-23T05:56:18.903Z,27.91
2018-08-23T05:58:53.003Z,28.17
2018-08-23T06:01:24.976Z,27.03
2018-08-23T06:03:56.964Z,26.77
2018-08-23T06:06:29.058Z,27.28
2018-08-23T06:09:02.011Z,28.31
2018-08-23T06:11:33.978Z,28.33
2018-08-23T06:14:06.026Z,27.87
2018-08-23T06:16:43.739Z,26.72
2018-08-23T06:19:15.743Z,25.99
2018-08-23T06:21:48.839Z,25.69
2018-08-23T06:24:20.853Z,24.92
2018-08-23T06:26:52.906Z,24.79
2018-08-23T06:29:32.851Z,24.32
2018-08-23T06:32:07.150Z,24.55
2018-08-23T06:34:41.804Z,24.34
2018-08-23T06:37:14.296Z,24.27
2018-08-23T06:39:46.722Z,24.09
2018-08-23T06:42:18.718Z,23.88
2018-08-23T06:44:52.399Z,23.84
2018-08-23T06:47:25.847Z,23.46
2018-08-23T06:49:57.848Z,23.30
2018-08-23T06:52:36.082Z,22.94
2018-08-23T06:55:13.592Z,22.73
2018-08-23T06:57:47.748Z,22.71
2018-08-23T07:00:24.779Z,22.61
2018-08-23T07:02:57.439Z,22.68
2018-08-23T07:05:29.494Z,22.65
2018-08-23T07:08:01.515Z,22.61
2018-08-23T07:10:33.586Z,22.49
2018-08-23T07:13:05.659Z,21.62
2018-08-23T07:15:39.700Z,21.11
2018-08-23T07:18:15.203Z,20.50
2018-08-23T07:20:47.175Z,20.35
2018-08-23T07:23:29.227Z,20.24
2018-08-23T07:26:03.059Z,20.05
2018-08-23T07:28:36.731Z,19.76
2018-08-23T07:31:08.752Z,19.66
2018-08-23T07:33:42.214Z,19.56
2018-08-23T07:36:25.593Z,19.55
2018-08-23T07:38:57.879Z,19.42
2018-08-23T07:41:29.896Z,19.32
2018-08-23T07:44:01.891Z,19.28
2018-08-23T07:46:33.899Z,19.38
2018-08-23T07:49:06.953Z,19.48
2018-08-23T07:51:40.207Z,19.39
2018-08-23T07:54:17.478Z,19.52
2018-08-23T07:56:49.475Z,19.52
2018-08-23T07:59:21.470Z,19.41
2018-08-23T08:01:53.447Z,19.32
2018-08-23T08:04:26.504Z,19.36
2018-08-23T08:06:58.535Z,19.50
2018-08-23T08:09:30.563Z,19.55
2018-08-23T08:12:02.622Z,19.63
2018-08-23T08:14:36.099Z,19.68
2018-08-23T08:17:15.480Z,19.74
2018-08-23T08:19:56.403Z,19.76
2018-08-23T08:22:28.660Z,19.78
2018-08-23T08:25:33.015Z,19.86
2018-08-23T08:28:09.644Z,19.88
2018-08-23T08:30:43.651Z,19.91
2018-08-23T08:33:16.810Z,19.98
2018-08-23T08:35:48.967Z,20.07
2018-08-23T08:38:20.963Z,20.17
2018-08-23T08:40:52.931Z,20.12
2018-08-23T08:43:25.146Z,20.12
2018-08-23T08:45:58.227Z,20.15
2018-08-23T08:48:31.907Z,20.15
2018-08-23T08:51:32.199Z,20.18
2018-08-23T08:54:04.198Z,20.16
2018-08-23T08:56:45.941Z,20.26
2018-08-23T08:59:17.935Z,20.28
2018-08-23T09:01:49.907Z,20.18
2018-08-23T09:04:27.673Z,20.15
2018-08-23T09:06:59.643Z,20.20
2018-08-23T09:09:33.950Z,20.35
2018-08-23T09:12:10.015Z,20.30
2018-08-23T09:14:42.651Z,20.47
2018-08-23T09:17:32.163Z,20.51
2018-08-23T09:20:07.491Z,20.70
2018-08-23T09:22:41.668Z,20.59
2018-08-23T09:25:19.949Z,20.48
2018-08-23T09:27:52.156Z,20.53
2018-08-23T09:30:25.553Z,20.53
2018-08-23T09:33:02.099Z,20.51
2018-08-23T09:35:34.501Z,20.72
2018-08-23T09:38:09.253Z,21.03
2018-08-23T09:40:41.322Z,21.20
2018-08-23T09:43:13.270Z,21.49
2018-08-23T09:45:45.388Z,21.80
2018-08-23T09:48:17.351Z,22.03
2018-08-23T09:50:49.404Z,22.45
2018-08-23T09:53:23.856Z,22.97
2018-08-23T09:55:56.363Z,23.02
2018-08-23T09:58:33.931Z,23.16
2018-08-23T10:01:11.551Z,23.73
2018-08-23T10:03:49.239Z,24.04
2018-08-23T10:06:21.233Z,24.82
2018-08-23T10:09:08.042Z,24.99
2018-08-23T10:11:45.761Z,24.95
2018-08-23T10:14:23.279Z,24.96
2018-08-23T10:17:00.986Z,25.51
2018-08-23T10:19:38.723Z,26.41
2018-08-23T10:22:16.469Z,26.94
2018-08-23T10:24:48.579Z,27.63
2018-08-23T10:27:20.572Z,27.84
2018-08-23T10:29:52.534Z,28.20
2018-08-23T10:32:24.552Z,28.93
2018-08-23T10:34:56.579Z,29.53
2018-08-23T10:37:28.580Z,29.96
2018-08-23T10:40:00.607Z,30.58
2018-08-23T10:42:33.627Z,30.60
2018-08-23T10:45:05.645Z,30.25
2018-08-23T10:47:43.436Z,29.95
2018-08-23T10:50:15.412Z,30.02
2018-08-23T10:52:47.443Z,30.59
2018-08-23T10:55:19.495Z,30.73
2018-08-23T10:57:51.522Z,30.29
2018-08-23T11:00:24.579Z,30.19
2018-08-23T11:02:56.587Z,30.56
2018-08-23T11:05:28.633Z,31.42
2018-08-23T11:08:06.293Z,31.92
2018-08-23T11:10:44.029Z,32.28
2018-08-23T11:13:21.735Z,32.10
2018-08-23T11:15:59.375Z,31.50
2018-08-23T11:18:37.003Z,30.14
2018-08-23T11:21:12.912Z,27.81
2018-08-23T11:23:45.575Z,27.38
2018-08-23T11:26:20.615Z,27.52
2018-08-23T11:28:52.609Z,27.94
2018-08-23T11:31:27.583Z,28.58
2018-08-23T11:33:59.678Z,29.45
2018-08-23T11:36:31.675Z,29.41
2018-08-23T11:39:05.430Z,29.77
2018-08-23T11:41:37.438Z,30.22
2018-08-23T11:44:09.399Z,30.43
2018-08-23T11:46:41.422Z,30.84
2018-08-23T11:49:14.487Z,30.71
2018-08-23T11:51:46.537Z,31.84
2018-08-23T11:54:18.512Z,32.82
2018-08-23T11:56:50.530Z,33.25
2018-08-23T11:59:22.539Z,33.53
2018-08-23T12:01:54.543Z,33.82
2018-08-23T12:04:26.571Z,34.15
2018-08-23T12:06:58.563Z,33.97
2018-08-23T12:09:31.766Z,32.84
2018-08-23T12:12:04.122Z,32.81
2018-08-23T12:14:37.174Z,32.04
2018-08-23T12:17:09.152Z,32.29
2018-08-23T12:19:41.177Z,30.75
2018-08-23T12:22:13.192Z,30.60
2018-08-23T12:24:45.195Z,30.62
2018-08-23T12:27:17.231Z,30.71
2018-08-23T12:29:49.629Z,31.30
2018-08-23T12:32:25.171Z,31.33
2018-08-23T12:34:57.183Z,31.80
2018-08-23T12:37:34.985Z,31.06
2018-08-23T12:40:12.710Z,31.35
2018-08-23T12:42:47.661Z,31.14
2018-08-23T12:45:19.684Z,31.76
2018-08-23T12:47:51.671Z,31.53
2018-08-23T12:50:23.667Z,31.82
2018-08-23T12:52:55.649Z,32.77
2018-08-23T12:55:27.668Z,31.94
2018-08-23T12:57:59.638Z,32.68
2018-08-23T13:00:31.659Z,32.46
2018-08-23T13:03:04.161Z,33.12
2018-08-23T13:05:36.663Z,33.06
2018-08-23T13:08:08.661Z,32.71
2018-08-23T13:10:40.642Z,33.17
2018-08-23T13:13:12.631Z,32.94
2018-08-23T13:15:44.614Z,32.77
2018-08-23T13:18:16.595Z,33.19
2018-08-23T13:20:48.622Z,32.94
2018-08-23T13:23:20.664Z,32.44
2018-08-23T13:25:53.655Z,32.38
2018-08-23T13:28:26.662Z,33.52
2018-08-23T13:30:58.650Z,34.67
2018-08-23T13:33:30.655Z,34.45
2018-08-23T13:36:02.686Z,35.30
2018-08-23T13:38:34.626Z,35.65
2018-08-23T13:41:06.614Z,34.59
2018-08-23T13:43:38.716Z,35.19
2018-08-23T13:46:10.596Z,35.37
2018-08-23T13:48:42.548Z,34.74
2018-08-23T13:51:14.525Z,34.29
2018-08-23T13:53:46.514Z,33.75
2018-08-23T13:56:18.526Z,34.22
2018-08-23T13:58:50.485Z,33.89
2018-08-23T14:01:25.447Z,34.55
2018-08-23T14:03:57.642Z,34.42
2018-08-23T14:06:29.610Z,34.84
2018-08-23T14:09:01.543Z,35.34
2018-08-23T14:11:33.487Z,35.97
2018-08-23T14:14:05.455Z,34.50
2018-08-23T14:16:37.451Z,35.47
2018-08-23T14:19:09.413Z,35.64
2018-08-23T14:21:41.382Z,35.96
2018-08-23T14:24:13.351Z,34.99
2018-08-23T14:26:45.336Z,35.16
2018-08-23T14:29:17.334Z,34.81
2018-08-23T14:31:49.318Z,34.79
2018-08-23T14:34:21.286Z,35.06
2018-08-23T14:36:53.283Z,35.03
2018-08-23T14:39:25.292Z,34.72
2018-08-23T14:41:57.283Z,34.81
2018-08-23T14:44:29.271Z,34.21
2018-08-23T14:47:07.113Z,34.56
2018-08-23T14:49:39.094Z,35.32
2018-08-23T14:52:11.072Z,35.77
2018-08-23T14:54:43.115Z,35.93
2018-08-23T14:57:20.729Z,35.52
2018-08-23T14:59:52.739Z,35.59
2018-08-23T15:02:24.712Z,35.63
2018-08-23T15:04:56.690Z,34.41
2018-08-23T15:07:28.655Z,35.30
2018-08-23T15:10:00.663Z,35.28
2018-08-23T15:12:32.635Z,33.94
2018-08-23T15:15:07.119Z,34.46
2018-08-23T15:17:39.082Z,34.11
2018-08-23T15:20:11.058Z,33.02
2018-08-23T15:22:43.041Z,32.57
2018-08-23T15:25:15.001Z,31.81
2018-08-23T15:27:46.958Z,31.78
2018-08-23T15:30:18.951Z,32.00
2018-08-23T15:32:50.910Z,31.47
2018-08-23T15:35:22.866Z,31.11
2018-08-23T15:37:54.870Z,31.38
2018-08-23T15:40:26.926Z,32.10
2018-08-23T15:42:58.879Z,32.14
2018-08-23T15:45:30.923Z,31.63
2018-08-23T15:48:02.974Z,31.10
2018-08-23T15:50:34.870Z,30.83
2018-08-23T15:53:06.883Z,30.97
2018-08-23T15:55:38.983Z,30.54
2018-08-23T15:58:10.856Z,30.64
2018-08-23T16:00:42.814Z,30.35
2018-08-23T16:03:14.840Z,29.84
2018-08-23T16:05:46.837Z,29.74
2018-08-23T16:08:18.828Z,29.68
2018-08-23T16:10:50.798Z,29.69
2018-08-23T16:13:22.779Z,29.70
2018-08-23T16:16:00.533Z,29.52
2018-08-23T16:18:38.191Z,29.29
2018-08-23T16:21:10.165Z,29.16
2018-08-23T16:23:42.163Z,29.15
2018-08-23T16:26:14.131Z,29.04
2018-08-23T16:28:46.135Z,28.98
2018-08-23T16:31:18.115Z,28.74
2018-08-23T16:33:50.080Z,28.20
2018-08-23T16:36:22.063Z,27.99
2018-08-23T16:38:54.084Z,27.88
2018-08-23T16:41:26.072Z,27.77
2018-08-23T16:43:58.051Z,27.66
2018-08-23T16:46:30.061Z,27.57
2018-08-23T16:49:02.062Z,27.70
2018-08-23T16:51:34.072Z,27.91
2018-08-23T16:54:06.066Z,27.93
2018-08-23T16:56:38.034Z,27.47
2018-08-23T16:59:09.990Z,27.24
2018-08-23T17:01:41.943Z,27.03
2018-08-23T17:04:13.995Z,27.00
2018-08-23T17:06:45.872Z,26.74
2018-08-23T17:09:17.886Z,26.62
2018-08-23T17:11:49.892Z,26.47
2018-08-23T17:14:21.903Z,26.46
2018-08-23T17:16:59.761Z,26.33
2018-08-23T17:19:31.729Z,25.96
2018-08-23T17:22:03.729Z,25.86
2018-08-23T17:24:35.755Z,25.79
2018-08-23T17:27:07.706Z,25.76
2018-08-23T17:29:39.651Z,25.81
2018-08-23T17:32:11.697Z,25.81
2018-08-23T17:34:43.675Z,25.86
2018-08-23T17:37:15.639Z,25.84
2018-08-23T17:39:47.602Z,25.71
2018-08-23T17:42:21.779Z,25.68
2018-08-23T17:44:53.737Z,25.63
2018-08-23T17:47:25.704Z,25.56
2018-08-23T17:49:57.686Z,25.48
2018-08-23T17:52:29.706Z,25.41
2018-08-23T17:55:01.717Z,25.38
2018-08-23T17:57:33.751Z,25.42
2018-08-23T18:00:05.742Z,25.36
2018-08-23T18:02:37.702Z,25.33
2018-08-23T18:05:09.854Z,25.37
2018-08-23T18:07:41.800Z,25.27
2018-08-23T18:10:13.774Z,25.27
2018-08-23T18:12:45.731Z,25.28
2018-08-23T18:15:17.723Z,25.25
2018-08-23T18:17:49.826Z,25.19
2018-08-23T18:20:21.736Z,25.31
2018-08-23T18:22:53.681Z,25.38
2018-08-23T18:25:25.752Z,25.38
2018-08-23T18:27:57.643Z,25.38
2018-08-23T18:30:29.585Z,25.34
2018-08-23T18:33:01.549Z,25.28
2018-08-23T18:35:33.632Z,25.23
2018-08-23T18:38:05.575Z,25.15
2018-08-23T18:40:37.531Z,25.03
2018-08-23T18:43:09.582Z,24.23
2018-08-23T18:45:41.590Z,23.95
2018-08-23T18:48:13.558Z,23.58
2018-08-23T18:50:45.531Z,23.27
2018-08-23T18:53:17.705Z,23.00
2018-08-23T18:55:49.707Z,22.79
2018-08-23T18:58:21.685Z,22.54
2018-08-23T19:00:53.639Z,22.41
2018-08-23T19:03:25.683Z,22.28
2018-08-23T19:05:57.647Z,22.20
2018-08-23T19:08:29.627Z,22.12
2018-08-23T19:11:01.678Z,22.10
2018-08-23T19:13:33.791Z,22.12
2018-08-23T19:16:11.576Z,22.19
2018-08-23T19:18:43.600Z,22.21
2018-08-23T19:21:15.484Z,22.11
2018-08-23T19:23:47.439Z,22.11
2018-08-23T19:26:19.407Z,22.04
2018-08-23T19:28:51.356Z,21.99
2018-08-23T19:31:23.372Z,21.96
2018-08-23T19:33:55.339Z,21.99
2018-08-23T19:36:27.311Z,21.93
2018-08-23T19:38:59.260Z,21.95
2018-08-23T19:41:31.263Z,21.99
2018-08-23T19:44:03.242Z,21.97
2018-08-23T19:46:40.835Z,21.95
2018-08-23T19:49:18.535Z,21.98
2018-08-23T19:51:50.518Z,22.05
2018-08-23T19:54:22.484Z,22.03
2018-08-23T19:56:54.443Z,22.00
2018-08-23T19:59:26.426Z,21.98
2018-08-23T20:01:58.439Z,22.03
2018-08-23T20:04:30.406Z,22.06
2018-08-23T20:07:02.372Z,22.06
2018-08-23T20:09:34.383Z,21.99
2018-08-23T20:12:06.613Z,21.96
2018-08-23T20:14:38.633Z,21.95
2018-08-23T20:17:10.638Z,21.94
2018-08-23T20:19:42.606Z,21.99
2018-08-23T20:22:14.572Z,21.96
2018-08-23T20:24:46.619Z,21.95
2018-08-23T20:27:18.616Z,21.96
2018-08-23T20:29:50.646Z,21.99
2018-08-23T20:32:22.657Z,22.10
2018-08-23T20:34:54.603Z,22.23
2018-08-23T20:37:26.560Z,22.30
2018-08-23T20:39:58.630Z,22.33
2018-08-23T20:42:30.583Z,22.28
2018-08-23T20:45:02.617Z,21.90
2018-08-23T20:47:34.559Z,21.47
2018-08-23T20:50:06.556Z,21.07
2018-08-23T20:52:38.586Z,20.62
2018-08-23T20:55:10.543Z,20.32
2018-08-23T20:57:42.559Z,20.17
2018-08-23T21:00:14.516Z,20.09
2018-08-23T21:02:46.473Z,20.09
2018-08-23T21:05:18.938Z,20.07
2018-08-23T21:07:50.979Z,20.03
2018-08-23T21:10:22.954Z,20.03
2018-08-23T21:12:54.934Z,19.98
2018-08-23T21:15:26.931Z,19.97
2018-08-23T21:17:58.944Z,20.02
2018-08-23T21:20:30.846Z,20.05
2018-08-23T21:23:02.795Z,20.04
2018-08-23T21:25:34.751Z,20.04
2018-08-23T21:28:06.702Z,20.03
2018-08-23T21:30:38.673Z,20.03
2018-08-23T21:33:10.629Z,20.01
2018-08-23T21:35:42.667Z,20.00
2018-08-23T21:38:14.627Z,20.07
2018-08-23T21:40:46.576Z,20.03
2018-08-23T21:43:18.547Z,20.11
2018-08-23T21:45:50.521Z,20.02
2018-08-23T21:48:22.466Z,20.01
2018-08-23T21:50:54.452Z,20.00
2018-08-23T21:53:26.396Z,20.02
2018-08-23T21:55:58.354Z,20.10
2018-08-23T21:58:30.383Z,20.10
2018-08-23T22:01:05.831Z,20.03
2018-08-23T22:03:38.260Z,19.94
2018-08-23T22:06:10.240Z,20.00
2018-08-23T22:08:42.187Z,20.07
2018-08-23T22:11:14.197Z,20.05
2018-08-23T22:13:46.156Z,20.02
2018-08-23T22:16:18.124Z,20.01
2018-08-23T22:18:50.083Z,19.95
2018-08-23T22:21:22.039Z,19.86
2018-08-23T22:23:54.008Z,19.79
2018-08-23T22:26:26.008Z,19.68
2018-08-23T22:28:57.986Z,19.55
2018-08-23T22:31:29.954Z,19.51
2018-08-23T22:34:01.905Z,19.57
2018-08-23T22:36:33.863Z,19.59
2018-08-23T22:39:06.338Z,19.59
2018-08-23T22:41:38.305Z,19.68
2018-08-23T22:44:10.323Z,19.60
2018-08-23T22:46:42.534Z,19.61
2018-08-23T22:49:14.466Z,19.58
2018-08-23T22:51:46.414Z,19.51
2018-08-23T22:54:18.371Z,19.36
2018-08-23T22:56:50.347Z,19.29
2018-08-23T22:59:22.280Z,19.14
2018-08-23T23:01:54.238Z,18.98
2018-08-23T23:04:27.447Z,18.85
2018-08-23T23:06:59.514Z,18.89
2018-08-23T23:09:31.431Z,18.93
2018-08-23T23:12:03.415Z,18.86
2018-08-23T23:14:35.362Z,18.77
2018-08-23T23:17:09.795Z,18.76
2018-08-23T23:19:41.740Z,18.71
2018-08-23T23:22:13.715Z,18.67
2018-08-23T23:24:51.320Z,18.61
2018-08-23T23:27:23.305Z,18.58
2018-08-23T23:29:55.275Z,18.59
2018-08-23T23:32:27.330Z,18.65
2018-08-23T23:34:59.307Z,18.61
2018-08-23T23:37:31.286Z,18.70
2018-08-23T23:40:03.301Z,18.67
2018-08-23T23:42:35.900Z,18.67
2018-08-23T23:45:08.277Z,18.69
2018-08-23T23:47:40.260Z,18.79
2018-08-23T23:50:12.307Z,18.83
2018-08-23T23:52:44.306Z,18.87
2018-08-23T23:55:16.270Z,19.03
2018-08-23T23:57:48.239Z,19.12
